createdAt,value
2018-09-23T00:01:58.323Z,30.17
2018-09-23T00:04:28.213Z,30.50
2018-09-23T00:06:57.964Z,28.63
2018-09-23T00:09:27.740Z,30.47
2018-09-23T00:11:57.404Z,29.60
2018-09-23T00:14:27.162Z,29.60
2018-09-23T00:16:56.992Z,28.50
2018-09-23T00:19:26.755Z,29.20
2018-09-23T00:21:56.472Z,28.77
2018-09-23T00:24:26.224Z,27.00
2018-09-23T00:26:55.996Z,28.87
2018-09-23T00:29:30.445Z,28.50
2018-09-23T00:32:00.565Z,28.07
2018-09-23T00:34:30.179Z,28.50
2018-09-23T00:37:00.160Z,26.50
2018-09-23T00:39:29.898Z,27.87
2018-09-23T00:41:59.635Z,27.87
2018-09-23T00:44:32.340Z,28.67
2018-09-23T00:47:02.396Z,28.73
2018-09-23T00:49:32.279Z,27.23
2018-09-23T00:52:02.070Z,28.33
2018-09-23T00:54:31.787Z,28.10
2018-09-23T00:57:01.571Z,28.20
2018-09-23T00:59:31.769Z,27.10
2018-09-23T01:02:01.518Z,29.03
2018-09-23T01:04:31.326Z,27.77
2018-09-23T01:07:01.206Z,34.90
2018-09-23T01:09:30.955Z,34.80
2018-09-23T01:12:00.749Z,38.83
2018-09-23T01:14:30.705Z,60.48
2018-09-23T01:17:00.382Z,53.38
2018-09-23T01:19:30.344Z,40.13
2018-09-23T01:22:00.355Z,33.87
2018-09-23T01:24:30.229Z,32.83
2018-09-23T01:27:00.073Z,31.07
2018-09-23T01:29:30.314Z,32.47
2018-09-23T01:32:00.155Z,32.77
2018-09-23T01:34:29.735Z,33.63
2018-09-23T01:36:59.634Z,37.77
2018-09-23T01:39:29.185Z,34.03
2018-09-23T01:41:58.845Z,32.70
2018-09-23T01:44:28.531Z,32.13
2018-09-23T01:46:58.192Z,30.97
2018-09-23T01:49:28.075Z,32.57
2018-09-23T01:51:57.896Z,30.70
2018-09-23T01:54:27.775Z,38.58
2018-09-23T01:56:57.453Z,34.33
2018-09-23T01:59:27.310Z,32.93
2018-09-23T02:01:56.940Z,35.50
2018-09-23T02:04:26.755Z,34.70
2018-09-23T02:06:56.453Z,34.53
2018-09-23T02:09:26.170Z,41.77
2018-09-23T02:11:55.862Z,37.87
2018-09-23T02:14:25.937Z,36.83
2018-09-23T02:16:55.655Z,37.57
2018-09-23T02:19:25.356Z,38.57
2018-09-23T02:21:54.944Z,34.53
2018-09-23T02:24:24.613Z,34.27
2018-09-23T02:26:54.462Z,32.80
2018-09-23T02:29:24.221Z,34.73
2018-09-23T02:31:54.050Z,35.40
2018-09-23T02:34:23.848Z,35.07
2018-09-23T02:36:53.996Z,35.23
2018-09-23T02:39:23.794Z,36.87
2018-09-23T02:41:53.467Z,34.90
2018-09-23T02:44:23.184Z,33.37
2018-09-23T02:46:53.268Z,33.27
2018-09-23T02:49:23.081Z,33.77
2018-09-23T02:51:52.969Z,33.93
2018-09-23T02:54:22.600Z,35.30
2018-09-23T02:56:52.369Z,36.53
2018-09-23T02:59:22.161Z,35.73
2018-09-23T03:01:51.964Z,35.87
2018-09-23T03:04:21.639Z,36.80
2018-09-23T03:06:51.386Z,35.70
2018-09-23T03:09:21.029Z,34.13
2018-09-23T03:11:50.712Z,35.13
2018-09-23T03:14:20.475Z,40.23
2018-09-23T03:16:50.279Z,42.50
2018-09-23T03:19:19.945Z,43.17
2018-09-23T03:21:49.712Z,45.77
2018-09-23T03:24:19.380Z,42.73
2018-09-23T03:26:49.143Z,52.65
2018-09-23T03:29:18.900Z,44.47
2018-09-23T03:31:48.830Z,42.03
2018-09-23T03:34:18.586Z,39.83
2018-09-23T03:36:48.423Z,38.37
2018-09-23T03:39:18.453Z,37.43
2018-09-23T03:41:48.157Z,35.80
2018-09-23T03:44:17.918Z,36.40
2018-09-23T03:46:47.735Z,36.73
2018-09-23T03:49:17.728Z,36.20
2018-09-23T03:51:47.412Z,36.53
2018-09-23T03:54:17.152Z,38.73
2018-09-23T03:56:46.970Z,39.00
2018-09-23T03:59:16.757Z,39.40
2018-09-23T04:01:46.377Z,39.17
2018-09-23T04:04:16.432Z,36.40
2018-09-23T04:06:46.249Z,36.37
2018-09-23T04:09:15.930Z,37.07
2018-09-23T04:11:45.551Z,35.70
2018-09-23T04:14:15.473Z,37.13
2018-09-23T04:16:46.460Z,35.97
2018-09-23T04:19:16.171Z,36.40
2018-09-23T04:21:45.863Z,34.70
2018-09-23T04:24:15.628Z,33.77
2018-09-23T04:26:45.380Z,32.23
2018-09-23T04:29:15.171Z,33.47
2018-09-23T04:31:45.080Z,34.27
2018-09-23T04:34:14.876Z,40.92
2018-09-23T04:36:44.580Z,35.80
2018-09-23T04:39:14.311Z,34.03
2018-09-23T04:41:43.967Z,34.87
2018-09-23T04:44:13.705Z,33.93
2018-09-23T04:46:43.412Z,33.30
2018-09-23T04:49:13.532Z,34.00
2018-09-23T04:51:43.315Z,32.70
2018-09-23T04:54:13.083Z,34.53
2018-09-23T04:56:42.766Z,35.63
2018-09-23T04:59:12.494Z,34.53
2018-09-23T05:01:42.169Z,34.70
2018-09-23T05:04:11.867Z,34.53
2018-09-23T05:06:41.546Z,34.70
2018-09-23T05:09:11.897Z,35.37
2018-09-23T05:11:41.836Z,35.03
2018-09-23T05:14:11.445Z,35.53
2018-09-23T05:16:41.268Z,35.93
2018-09-23T05:19:11.547Z,34.63
2018-09-23T05:21:41.446Z,33.63
2018-09-23T05:24:11.063Z,36.13
2018-09-23T05:26:40.775Z,36.67
2018-09-23T05:29:10.568Z,36.27
2018-09-23T05:31:40.187Z,36.17
2018-09-23T05:34:09.845Z,38.63
2018-09-23T05:36:39.518Z,37.70
2018-09-23T05:39:10.888Z,42.48
2018-09-23T05:41:40.633Z,39.73
2018-09-23T05:44:10.822Z,42.03
2018-09-23T05:46:40.624Z,42.13
2018-09-23T05:49:10.865Z,43.67
2018-09-23T05:51:40.807Z,44.77
2018-09-23T05:54:10.643Z,47.17
2018-09-23T05:56:40.406Z,51.47
2018-09-23T05:59:10.238Z,49.47
2018-09-23T06:01:40.078Z,49.53
2018-09-23T06:04:10.140Z,48.83
2018-09-23T06:06:39.831Z,56.00
2018-09-23T06:09:09.491Z,44.90
2018-09-23T06:11:39.301Z,42.37
2018-09-23T06:14:09.087Z,42.70
2018-09-23T06:16:39.352Z,44.07
2018-09-23T06:19:09.115Z,43.57
2018-09-23T06:21:39.258Z,41.30
2018-09-23T06:24:09.049Z,42.10
2018-09-23T06:26:45.316Z,42.87
2018-09-23T06:29:15.011Z,44.17
2018-09-23T06:31:45.168Z,44.43
2018-09-23T06:34:14.941Z,43.90
2018-09-23T06:36:44.662Z,41.60
2018-09-23T06:39:14.398Z,41.13
2018-09-23T06:41:44.062Z,42.40
2018-09-23T06:44:13.952Z,41.80
2018-09-23T06:46:43.994Z,43.60
2018-09-23T06:49:14.819Z,45.53
2018-09-23T06:51:44.917Z,45.40
2018-09-23T06:54:14.586Z,42.80
2018-09-23T06:56:44.790Z,45.13
2018-09-23T06:59:14.556Z,45.40
2018-09-23T07:01:44.323Z,46.30
2018-09-23T07:04:16.189Z,45.03
2018-09-23T07:06:47.189Z,46.57
2018-09-23T07:09:17.754Z,44.53
2018-09-23T07:11:47.753Z,43.40
2018-09-23T07:14:18.435Z,43.37
2018-09-23T07:16:49.304Z,41.70
2018-09-23T07:19:20.396Z,43.00
2018-09-23T07:21:50.177Z,47.07
2018-09-23T07:24:23.875Z,44.73
2018-09-23T07:26:54.691Z,41.43
2018-09-23T07:29:24.992Z,43.53
2018-09-23T07:31:55.980Z,43.63
2018-09-23T07:34:26.756Z,45.03
2018-09-23T07:36:56.547Z,39.80
2018-09-23T07:39:26.687Z,40.67
2018-09-23T07:41:56.540Z,40.60
2018-09-23T07:44:26.339Z,40.17
2018-09-23T07:46:56.059Z,37.47
2018-09-23T07:49:25.838Z,36.20
2018-09-23T07:51:56.527Z,37.27
2018-09-23T07:54:26.796Z,34.33
2018-09-23T07:56:56.619Z,33.27
2018-09-23T07:59:26.501Z,33.27
2018-09-23T08:01:56.213Z,32.90
2018-09-23T08:04:25.957Z,29.77
2018-09-23T08:06:55.632Z,28.80
2018-09-23T08:09:25.413Z,30.17
2018-09-23T08:11:55.128Z,25.57
2018-09-23T08:14:25.114Z,23.37
2018-09-23T08:16:54.650Z,27.10
2018-09-23T08:19:24.706Z,23.87
2018-09-23T08:21:54.484Z,23.80
2018-09-23T08:24:24.295Z,23.33
2018-09-23T08:26:54.109Z,25.03
2018-09-23T08:29:23.855Z,23.03
2018-09-23T08:31:53.626Z,23.67
2018-09-23T08:34:23.437Z,23.63
2018-09-23T08:36:53.290Z,25.90
2018-09-23T08:39:23.028Z,20.50
2018-09-23T08:41:52.803Z,20.00
2018-09-23T08:44:22.561Z,22.43
2018-09-23T08:46:52.382Z,21.43
2018-09-23T08:49:22.155Z,23.12
2018-09-23T08:51:52.748Z,24.93
2018-09-23T08:54:22.574Z,24.20
2018-09-23T08:56:52.287Z,24.93
2018-09-23T08:59:22.264Z,24.93
2018-09-23T09:01:52.162Z,25.23
2018-09-23T09:04:21.851Z,24.03
2018-09-23T09:06:51.566Z,24.87
2018-09-23T09:09:21.428Z,23.33
2018-09-23T09:11:51.203Z,24.90
2018-09-23T09:14:20.752Z,22.50
2018-09-23T09:16:50.639Z,26.37
2018-09-23T09:19:20.486Z,26.45
2018-09-23T09:21:50.162Z,25.47
2018-09-23T09:24:19.890Z,23.37
2018-09-23T09:26:49.809Z,26.03
2018-09-23T09:29:19.481Z,22.13
2018-09-23T09:31:49.109Z,19.60
2018-09-23T09:34:18.737Z,17.57
2018-09-23T09:36:48.575Z,16.40
2018-09-23T09:39:18.417Z,20.63
2018-09-23T09:41:48.466Z,23.33
2018-09-23T09:44:18.404Z,19.83
2018-09-23T09:46:48.207Z,18.30
2018-09-23T09:49:17.839Z,17.83
2018-09-23T09:51:47.615Z,19.03
2018-09-23T09:54:17.308Z,24.13
2018-09-23T09:56:47.047Z,24.37
2018-09-23T09:59:16.811Z,18.30
2018-09-23T10:01:46.556Z,17.90
2018-09-23T10:04:16.429Z,18.33
2018-09-23T10:06:46.055Z,18.60
2018-09-23T10:09:15.975Z,18.70
2018-09-23T10:11:45.823Z,21.10
2018-09-23T10:14:15.734Z,20.07
2018-09-23T10:16:45.345Z,24.67
2018-09-23T10:19:15.080Z,21.27
2018-09-23T10:21:44.977Z,23.07
2018-09-23T10:24:14.844Z,18.97
2018-09-23T10:26:44.577Z,21.47
2018-09-23T10:29:14.303Z,20.93
2018-09-23T10:31:44.026Z,19.43
2018-09-23T10:34:13.801Z,15.80
2018-09-23T10:36:43.592Z,16.33
2018-09-23T10:39:13.351Z,16.10
2018-09-23T10:41:43.303Z,18.47
2018-09-23T10:44:13.183Z,18.30
2018-09-23T10:46:43.072Z,15.73
2018-09-23T10:49:13.829Z,15.60
2018-09-23T10:51:44.066Z,15.40
2018-09-23T10:54:14.791Z,14.53
2018-09-23T10:56:45.514Z,15.17
2018-09-23T10:59:16.174Z,14.97
2018-09-23T11:01:47.144Z,14.73
2018-09-23T11:04:17.944Z,16.37
2018-09-23T11:06:47.747Z,15.03
2018-09-23T11:09:29.107Z,16.83
2018-09-23T11:12:00.536Z,16.33
2018-09-23T11:14:31.255Z,16.77
2018-09-23T11:17:01.193Z,14.67
2018-09-23T11:19:31.047Z,15.43
2018-09-23T11:22:00.802Z,15.80
2018-09-23T11:24:30.560Z,13.37
2018-09-23T11:27:01.147Z,14.03
2018-09-23T11:29:31.231Z,13.30
2018-09-23T11:32:01.177Z,12.13
2018-09-23T11:34:31.012Z,12.23
2018-09-23T11:37:00.778Z,11.10
2018-09-23T11:39:31.031Z,12.20
2018-09-23T11:42:07.927Z,11.77
2018-09-23T11:44:39.031Z,11.13
2018-09-23T11:47:10.424Z,10.50
2018-09-23T11:49:42.377Z,10.73
2018-09-23T11:52:12.080Z,10.93
2018-09-23T11:54:42.381Z,10.20
2018-09-23T11:57:12.418Z,11.83
2018-09-23T11:59:42.266Z,10.67
2018-09-23T12:02:12.558Z,10.43
2018-09-23T12:04:42.428Z,11.13
2018-09-23T12:07:12.137Z,12.43
2018-09-23T12:09:41.994Z,11.37
2018-09-23T12:12:11.924Z,10.90
2018-09-23T12:14:41.713Z,12.13
2018-09-23T12:17:11.436Z,14.27
2018-09-23T12:19:41.208Z,14.83
2018-09-23T12:22:10.909Z,14.20
2018-09-23T12:24:40.695Z,14.50
2018-09-23T12:27:10.353Z,13.50
2018-09-23T12:29:40.088Z,12.50
2018-09-23T12:32:09.869Z,14.33
2018-09-23T12:34:39.572Z,13.50
2018-09-23T12:37:09.197Z,13.57
2018-09-23T12:39:39.178Z,12.90
2018-09-23T12:42:09.081Z,12.10
2018-09-23T12:44:51.280Z,11.93
2018-09-23T12:47:25.207Z,13.20
2018-09-23T12:49:56.173Z,12.80
2018-09-23T12:52:26.046Z,14.17
2018-09-23T12:55:00.068Z,13.20
2018-09-23T12:57:30.735Z,11.30
2018-09-23T13:00:01.290Z,13.70
2018-09-23T13:02:32.360Z,14.37
2018-09-23T13:05:04.160Z,12.63
2018-09-23T13:07:33.738Z,13.80
2018-09-23T13:10:03.515Z,12.63
2018-09-23T13:12:33.588Z,12.80
2018-09-23T13:15:03.343Z,12.17
2018-09-23T13:17:33.110Z,12.23
2018-09-23T13:20:02.993Z,12.77
2018-09-23T13:22:32.749Z,11.70
2018-09-23T13:25:02.598Z,10.70
2018-09-23T13:27:32.483Z,10.37
2018-09-23T13:30:02.389Z,9.93
2018-09-23T13:32:32.155Z,10.03
2018-09-23T13:35:01.990Z,9.87
2018-09-23T13:37:31.787Z,9.20
2018-09-23T13:40:01.550Z,9.00
2018-09-23T13:42:31.214Z,8.73
2018-09-23T13:45:02.105Z,8.73
2018-09-23T13:47:44.981Z,10.90
2018-09-23T13:50:17.066Z,9.20
2018-09-23T13:52:48.138Z,9.40
2018-09-23T13:55:20.883Z,9.97
2018-09-23T13:57:51.794Z,11.20
2018-09-23T14:02:59.912Z,10.37
2018-09-23T14:05:29.739Z,13.23
2018-09-23T14:08:03.367Z,14.23
2018-09-23T15:07:55.344Z,10.20
2018-09-23T15:10:25.538Z,11.80
2018-09-23T15:12:55.836Z,11.03
2018-09-23T15:15:26.016Z,11.53
2018-09-23T15:17:57.592Z,10.57
2018-09-23T15:20:28.767Z,11.10
2018-09-23T15:23:00.554Z,11.40
2018-09-23T15:25:30.445Z,11.37
2018-09-23T15:28:01.225Z,14.13
2018-09-23T15:30:31.205Z,39.70
2018-09-23T15:33:01.211Z,35.77
2018-09-23T15:35:31.097Z,108.70
2018-09-23T15:38:01.181Z,86.40
2018-09-23T15:40:31.174Z,85.03
2018-09-23T15:43:01.289Z,91.03
2018-09-23T15:45:31.177Z,52.43
2018-09-23T15:48:01.120Z,32.17
2018-09-23T15:50:31.038Z,65.70
2018-09-23T15:53:01.033Z,53.17
2018-09-23T15:55:30.906Z,65.57
2018-09-23T15:58:00.942Z,53.27
2018-09-23T16:00:30.735Z,52.77
2018-09-23T16:03:00.539Z,38.53
2018-09-23T16:05:30.302Z,20.60
2018-09-23T16:08:00.416Z,17.00
2018-09-23T16:10:30.411Z,17.90
2018-09-23T16:13:01.138Z,16.60
2018-09-23T16:15:31.338Z,16.80
2018-09-23T16:18:01.185Z,18.03
2018-09-23T16:20:31.641Z,20.03
2018-09-23T16:23:01.473Z,23.17
2018-09-23T16:25:31.518Z,28.23
2018-09-23T16:28:01.602Z,30.33
2018-09-23T16:30:31.469Z,60.17
2018-09-23T16:33:01.552Z,40.87
2018-09-23T16:35:31.314Z,36.87
2018-09-23T16:38:01.379Z,36.77
2018-09-23T16:40:31.162Z,39.07
2018-09-23T16:43:00.959Z,67.13
2018-09-23T16:45:30.814Z,68.40
2018-09-23T16:48:00.735Z,39.67
2018-09-23T16:50:30.564Z,40.73
2018-09-23T16:53:00.554Z,42.83
2018-09-23T16:55:34.333Z,45.47
2018-09-23T16:58:06.885Z,46.83
2018-09-23T17:00:38.961Z,43.37
2018-09-23T17:03:10.667Z,48.07
2018-09-23T17:05:40.836Z,48.47
2018-09-23T17:08:10.742Z,41.37
2018-09-23T17:10:40.662Z,31.50
2018-09-23T17:13:11.306Z,27.20
2018-09-23T17:15:41.158Z,27.97
2018-09-23T17:18:11.048Z,27.17
2018-09-23T17:20:45.777Z,26.37
2018-09-23T17:23:16.276Z,26.73
2018-09-23T17:25:47.841Z,27.43
2018-09-23T17:28:19.356Z,26.07
2018-09-23T17:30:53.063Z,28.00
2018-09-23T17:33:23.578Z,29.43
2018-09-23T17:35:56.053Z,31.23
2018-09-23T17:38:32.173Z,33.30
2018-09-23T17:41:03.364Z,33.13
2018-09-23T17:43:35.805Z,37.07
2018-09-23T17:46:06.048Z,60.60
2018-09-23T17:48:39.436Z,51.43
2018-09-23T17:51:12.872Z,35.73
2018-09-23T17:53:48.423Z,31.20
2018-09-23T17:56:20.032Z,29.33
2018-09-23T17:58:57.625Z,29.33
2018-09-23T18:01:31.586Z,29.57
2018-09-23T18:04:04.655Z,42.27
2018-09-23T18:06:36.775Z,30.77
2018-09-23T18:09:10.522Z,38.93
2018-09-23T18:11:44.636Z,54.50
2018-09-23T18:14:18.726Z,86.33
2018-09-23T18:16:50.737Z,81.53
2018-09-23T18:19:20.551Z,69.77
2018-09-23T18:21:50.551Z,52.17
2018-09-23T18:24:20.320Z,32.63
2018-09-23T18:26:50.586Z,30.87
2018-09-23T18:29:22.417Z,30.37
2018-09-23T18:31:52.446Z,27.80
2018-09-23T18:34:22.376Z,28.73
2018-09-23T18:36:52.486Z,27.87
2018-09-23T18:39:22.412Z,28.30
2018-09-23T18:41:52.242Z,27.10
2018-09-23T18:44:22.099Z,25.77
2018-09-23T18:46:52.093Z,25.53
2018-09-23T18:51:52.016Z,26.60
2018-09-23T18:54:26.805Z,24.63
2018-09-23T18:56:56.834Z,24.03
2018-09-23T18:59:26.673Z,23.33
2018-09-23T19:01:56.357Z,24.33
2018-09-23T19:04:26.003Z,24.97
2018-09-23T19:06:55.747Z,25.57
2018-09-23T19:09:25.908Z,27.43
2018-09-23T19:11:55.739Z,28.30
2018-09-23T19:14:25.557Z,27.67
2018-09-23T19:16:55.438Z,29.70
2018-09-23T19:19:30.098Z,28.97
2018-09-23T19:22:00.722Z,28.97
2018-09-23T19:24:32.855Z,28.20
2018-09-23T19:27:06.576Z,28.83
2018-09-23T19:29:36.616Z,27.93
2018-09-23T19:32:06.474Z,26.93
2018-09-23T19:34:36.706Z,27.23
2018-09-23T19:37:06.655Z,27.27
2018-09-23T19:39:36.468Z,26.90
2018-09-23T19:42:06.771Z,25.40
2018-09-23T19:44:36.643Z,25.17
2018-09-23T19:47:06.352Z,27.67
2018-09-23T19:49:36.084Z,26.43
2018-09-23T19:52:06.341Z,27.00
2018-09-23T19:54:36.055Z,26.80
2018-09-23T19:57:05.787Z,26.53
2018-09-23T19:59:35.472Z,27.17
2018-09-23T20:02:05.659Z,27.70
2018-09-23T20:04:35.403Z,28.13
2018-09-23T20:07:06.019Z,27.83
2018-09-23T20:09:35.949Z,28.90
2018-09-23T20:12:06.197Z,30.07
2018-09-23T20:14:36.271Z,30.47
2018-09-23T20:17:09.405Z,28.60
2018-09-23T20:19:40.484Z,28.20
2018-09-23T20:22:11.334Z,28.80
2018-09-23T20:24:42.037Z,29.03
2018-09-23T20:27:12.012Z,27.37
2018-09-23T20:29:41.975Z,26.73
2018-09-23T20:32:25.405Z,25.27
2018-09-23T20:34:56.347Z,24.73
2018-09-23T20:37:26.585Z,25.30
2018-09-23T20:39:56.539Z,23.57
2018-09-23T20:42:27.001Z,22.53
2018-09-23T20:44:57.081Z,26.83
2018-09-23T20:47:27.479Z,24.13
2018-09-23T20:49:57.253Z,23.47
2018-09-23T20:52:26.976Z,24.23
2018-09-23T20:54:58.157Z,23.50
2018-09-23T20:57:27.984Z,23.27
2018-09-23T20:59:58.175Z,25.17
2018-09-23T21:02:31.187Z,23.23
2018-09-23T21:05:01.159Z,23.93
2018-09-23T21:07:30.882Z,26.40
2018-09-23T21:10:00.731Z,124.23
2018-09-23T21:12:30.536Z,109.27
2018-09-23T21:15:00.502Z,114.33
2018-09-23T21:17:30.295Z,236.90
2018-09-23T21:20:00.295Z,174.67
2018-09-23T21:22:30.021Z,128.73
2018-09-23T21:24:59.747Z,45.17
2018-09-23T21:27:29.637Z,43.47
2018-09-23T21:29:59.623Z,64.00
2018-09-23T21:32:29.508Z,73.33
2018-09-23T21:34:59.414Z,52.73
2018-09-23T21:37:29.583Z,55.87
2018-09-23T21:39:59.262Z,54.70
2018-09-23T21:42:29.038Z,47.17
2018-09-23T21:44:59.400Z,45.13
2018-09-23T21:47:29.137Z,42.63
2018-09-23T21:49:58.960Z,40.73
2018-09-23T21:52:28.703Z,35.47
2018-09-23T21:54:58.558Z,32.23
2018-09-23T21:57:28.298Z,30.00
2018-09-23T21:59:58.234Z,31.37
2018-09-23T22:02:28.212Z,30.03
2018-09-23T22:04:58.086Z,28.50
2018-09-23T22:07:27.835Z,29.73
2018-09-23T22:09:57.637Z,30.43
2018-09-23T22:12:27.484Z,29.07
2018-09-23T22:14:57.234Z,29.60
2018-09-23T22:17:27.118Z,31.73
2018-09-23T22:19:56.956Z,31.90
2018-09-23T22:22:27.090Z,30.00
2018-09-23T22:24:57.209Z,30.57
2018-09-23T22:27:26.898Z,49.60
2018-09-23T22:29:57.529Z,105.50
2018-09-23T22:32:27.716Z,83.33
2018-09-23T22:34:57.637Z,86.43
2018-09-23T22:37:27.376Z,58.00
2018-09-23T22:39:57.192Z,43.87
2018-09-23T22:42:27.049Z,46.00
2018-09-23T22:44:56.797Z,104.00
2018-09-23T22:47:26.658Z,123.87
2018-09-23T22:49:56.260Z,168.23
2018-09-23T22:52:26.118Z,85.53
2018-09-23T22:54:55.858Z,53.00
2018-09-23T22:57:25.571Z,44.53
2018-09-23T22:59:55.523Z,48.90
2018-09-23T23:02:25.313Z,62.93
2018-09-23T23:04:55.164Z,40.97
2018-09-23T23:07:24.979Z,35.60
2018-09-23T23:09:54.783Z,34.33
2018-09-23T23:12:24.768Z,34.37
2018-09-23T23:14:54.790Z,31.77
2018-09-23T23:17:24.527Z,31.53
2018-09-23T23:19:54.424Z,35.30
2018-09-23T23:22:24.350Z,31.30
2018-09-23T23:24:54.143Z,36.33
2018-09-23T23:27:24.253Z,56.68
2018-09-23T23:29:54.335Z,31.80
2018-09-23T23:32:24.125Z,29.63
2018-09-23T23:34:53.853Z,29.40
2018-09-23T23:37:23.870Z,30.37
2018-09-23T23:39:53.538Z,28.27
2018-09-23T23:42:23.323Z,30.37
2018-09-23T23:44:53.121Z,31.90
2018-09-23T23:47:23.184Z,31.57
2018-09-23T23:49:52.949Z,35.00
2018-09-23T23:52:22.874Z,39.53
2018-09-23T23:54:52.662Z,42.17
2018-09-23T23:57:22.387Z,38.97
2018-09-23T23:59:52.307Z,39.50
